sensor_id;sensor_type;location;lat;lon;timestamp;pressure;altitude;pressure_sealevel;temperature;humidity
48892;BME280;50130;52.150;5.236;2022-12-10T00:01:14;100637.0;;;1.16;95.28
48892;BME280;50130;52.150;5.236;2022-12-10T00:04:30;100642.0;;;1.18;95.44
48892;BME280;50130;52.150;5.236;2022-12-10T00:06:08;100636.0;;;1.23;95.13
48892;BME280;50130;52.150;5.236;2022-12-10T00:07:47;100638.0;;;1.26;94.89
48892;BME280;50130;52.150;5.236;2022-12-10T00:09:23;100641.0;;;1.16;94.92
48892;BME280;50130;52.150;5.236;2022-12-10T00:12:39;100640.0;;;1.19;95.2
48892;BME280;50130;52.150;5.236;2022-12-10T00:14:16;100636.0;;;1.29;94.78
48892;BME280;50130;52.150;5.236;2022-12-10T00:15:53;100639.0;;;1.24;94.79
48892;BME280;50130;52.150;5.236;2022-12-10T00:19:06;100635.0;;;1.33;94.37
48892;BME280;50130;52.150;5.236;2022-12-10T00:20:42;100635.0;;;1.25;94.81
48892;BME280;50130;52.150;5.236;2022-12-10T00:25:33;100634.0;;;1.23;94.78
48892;BME280;50130;52.150;5.236;2022-12-10T00:27:10;100638.0;;;1.25;94.76
48892;BME280;50130;52.150;5.236;2022-12-10T00:28:47;100641.0;;;1.16;95.16
48892;BME280;50130;52.150;5.236;2022-12-10T00:30:24;100639.0;;;1.15;95.36
48892;BME280;50130;52.150;5.236;2022-12-10T00:33:42;100645.0;;;1.22;95.4
48892;BME280;50130;52.150;5.236;2022-12-10T00:35:20;100645.0;;;1.17;95.16
48892;BME280;50130;52.150;5.236;2022-12-10T00:36:57;100639.0;;;1.08;95.85
48892;BME280;50130;52.150;5.236;2022-12-10T00:40:11;100640.0;;;1.07;95.89
48892;BME280;50130;52.150;5.236;2022-12-10T00:41:48;100642.0;;;1.31;95.47
48892;BME280;50130;52.150;5.236;2022-12-10T00:48:14;100650.0;;;1.2;95.75
48892;BME280;50130;52.150;5.236;2022-12-10T00:49:50;100643.0;;;1.19;95.5
48892;BME280;50130;52.150;5.236;2022-12-10T00:51:27;100651.0;;;1.31;95.37
48892;BME280;50130;52.150;5.236;2022-12-10T00:54:40;100649.0;;;1.16;95.95
48892;BME280;50130;52.150;5.236;2022-12-10T00:57:52;100651.0;;;1.16;95.92
48892;BME280;50130;52.150;5.236;2022-12-10T00:59:28;100650.0;;;1.21;96.02
48892;BME280;50130;52.150;5.236;2022-12-10T01:01:09;100653.0;;;1.39;95.54
48892;BME280;50130;52.150;5.236;2022-12-10T01:02:46;100651.0;;;1.2;95.56
48892;BME280;50130;52.150;5.236;2022-12-10T01:04:22;100655.0;;;1.13;96.12
48892;BME280;50130;52.150;5.236;2022-12-10T01:07:44;100653.0;;;1.17;96.04
48892;BME280;50130;52.150;5.236;2022-12-10T01:11:01;100663.0;;;1.25;95.8
48892;BME280;50130;52.150;5.236;2022-12-10T01:12:37;100666.0;;;1.27;95.52
48892;BME280;50130;52.150;5.236;2022-12-10T01:14:15;100661.0;;;1.02;96.38
48892;BME280;50130;52.150;5.236;2022-12-10T01:17:29;100664.0;;;1.22;96.27
48892;BME280;50130;52.150;5.236;2022-12-10T01:19:06;100662.0;;;1.16;96.28
48892;BME280;50130;52.150;5.236;2022-12-10T01:20:43;100666.0;;;1.23;96.12
48892;BME280;50130;52.150;5.236;2022-12-10T01:23:56;100665.0;;;1.15;96.33
48892;BME280;50130;52.150;5.236;2022-12-10T01:25:33;100673.0;;;1.31;96.1
48892;BME280;50130;52.150;5.236;2022-12-10T01:27:09;100677.0;;;1.1;96.37
48892;BME280;50130;52.150;5.236;2022-12-10T01:30:23;100670.0;;;1.18;96.03
48892;BME280;50130;52.150;5.236;2022-12-10T01:31:59;100674.0;;;1.21;96.16
48892;BME280;50130;52.150;5.236;2022-12-10T01:33:36;100670.0;;;1.31;96.13
48892;BME280;50130;52.150;5.236;2022-12-10T01:35:12;100672.0;;;1.28;96.29
48892;BME280;50130;52.150;5.236;2022-12-10T01:38:28;100674.0;;;1.37;95.78
48892;BME280;50130;52.150;5.236;2022-12-10T01:40:04;100675.0;;;1.38;95.49
48892;BME280;50130;52.150;5.236;2022-12-10T01:41:43;100673.0;;;1.29;95.43
48892;BME280;50130;52.150;5.236;2022-12-10T01:45:04;100680.0;;;1.17;96.07
48892;BME280;50130;52.150;5.236;2022-12-10T01:46:43;100678.0;;;1.25;96.04
48892;BME280;50130;52.150;5.236;2022-12-10T01:48:21;100688.0;;;1.21;96.06
48892;BME280;50130;52.150;5.236;2022-12-10T01:49:58;100688.0;;;1.26;95.91
48892;BME280;50130;52.150;5.236;2022-12-10T01:53:15;100687.0;;;1.36;95.66
48892;BME280;50130;52.150;5.236;2022-12-10T01:54:52;100693.0;;;1.39;95.72
48892;BME280;50130;52.150;5.236;2022-12-10T01:56:28;100696.0;;;1.25;95.96
48892;BME280;50130;52.150;5.236;2022-12-10T01:58:07;100699.0;;;1.37;95.56
48892;BME280;50130;52.150;5.236;2022-12-10T02:01:28;100700.0;;;1.24;95.84
48892;BME280;50130;52.150;5.236;2022-12-10T02:03:20;100695.0;;;1.16;96.67
48892;BME280;50130;52.150;5.236;2022-12-10T02:05:10;100703.0;;;1.15;96.26
48892;BME280;50130;52.150;5.236;2022-12-10T02:06:55;100706.0;;;1.16;96.72
48892;BME280;50130;52.150;5.236;2022-12-10T02:08:41;100709.0;;;1.25;96.3
48892;BME280;50130;52.150;5.236;2022-12-10T02:12:17;100703.0;;;1.37;96.08
48892;BME280;50130;52.150;5.236;2022-12-10T02:14:01;100710.0;;;1.3;95.7
48892;BME280;50130;52.150;5.236;2022-12-10T02:15:43;100703.0;;;1.17;96.35
48892;BME280;50130;52.150;5.236;2022-12-10T02:17:26;100700.0;;;1.23;96.24
48892;BME280;50130;52.150;5.236;2022-12-10T02:19:09;100696.0;;;1.12;96.32
48892;BME280;50130;52.150;5.236;2022-12-10T02:22:44;100698.0;;;1.13;96.52
48892;BME280;50130;52.150;5.236;2022-12-10T02:24:25;100691.0;;;1.29;96.39
48892;BME280;50130;52.150;5.236;2022-12-10T02:26:11;100694.0;;;1.16;96.52
48892;BME280;50130;52.150;5.236;2022-12-10T02:27:54;100697.0;;;1.07;96.9
48892;BME280;50130;52.150;5.236;2022-12-10T02:29:36;100706.0;;;1.13;96.93
48892;BME280;50130;52.150;5.236;2022-12-10T02:32:56;100699.0;;;1.08;97.09
48892;BME280;50130;52.150;5.236;2022-12-10T02:34:37;100694.0;;;1.28;96.68
48892;BME280;50130;52.150;5.236;2022-12-10T02:36:18;100697.0;;;1.4;96.13
48892;BME280;50130;52.150;5.236;2022-12-10T02:38:11;100691.0;;;1.35;96.28
48892;BME280;50130;52.150;5.236;2022-12-10T02:41:33;100703.0;;;1.29;96.25
48892;BME280;50130;52.150;5.236;2022-12-10T02:43:12;100695.0;;;1.33;96.56
48892;BME280;50130;52.150;5.236;2022-12-10T02:44:50;100694.0;;;1.36;96.29
48892;BME280;50130;52.150;5.236;2022-12-10T02:46:29;100694.0;;;1.32;96.23
48892;BME280;50130;52.150;5.236;2022-12-10T02:49:47;100690.0;;;1.29;96.45
48892;BME280;50130;52.150;5.236;2022-12-10T02:51:25;100694.0;;;1.4;96.14
48892;BME280;50130;52.150;5.236;2022-12-10T02:53:02;100698.0;;;1.4;95.82
48892;BME280;50130;52.150;5.236;2022-12-10T02:54:41;100700.0;;;1.46;95.91
48892;BME280;50130;52.150;5.236;2022-12-10T02:58:09;100705.0;;;1.28;96.14
48892;BME280;50130;52.150;5.236;2022-12-10T03:00:00;100697.0;;;1.37;96.06
48892;BME280;50130;52.150;5.236;2022-12-10T03:01:48;100700.0;;;1.33;96.39
48892;BME280;50130;52.150;5.236;2022-12-10T03:03:37;100699.0;;;1.42;96.15
48892;BME280;50130;52.150;5.236;2022-12-10T03:05:24;100706.0;;;1.37;96.22
48892;BME280;50130;52.150;5.236;2022-12-10T03:08:49;100710.0;;;1.25;96.58
48892;BME280;50130;52.150;5.236;2022-12-10T03:10:31;100699.0;;;1.3;96.55
48892;BME280;50130;52.150;5.236;2022-12-10T03:12:17;100701.0;;;1.35;96.38
48892;BME280;50130;52.150;5.236;2022-12-10T03:13:59;100705.0;;;1.31;96.49
48892;BME280;50130;52.150;5.236;2022-12-10T03:15:40;100699.0;;;1.36;96.24
48892;BME280;50130;52.150;5.236;2022-12-10T03:19:00;100705.0;;;1.35;96.24
48892;BME280;50130;52.150;5.236;2022-12-10T03:20:39;100710.0;;;1.21;97.03
48892;BME280;50130;52.150;5.236;2022-12-10T03:22:19;100705.0;;;1.28;97.13
48892;BME280;50130;52.150;5.236;2022-12-10T03:23:56;100700.0;;;1.35;96.81
48892;BME280;50130;52.150;5.236;2022-12-10T03:27:12;100693.0;;;1.42;96.5
48892;BME280;50130;52.150;5.236;2022-12-10T03:28:54;100700.0;;;1.42;96.05
48892;BME280;50130;52.150;5.236;2022-12-10T03:30:35;100689.0;;;1.44;96.13
48892;BME280;50130;52.150;5.236;2022-12-10T03:32:16;100689.0;;;1.41;96.38
48892;BME280;50130;52.150;5.236;2022-12-10T03:35:32;100689.0;;;1.52;96.22
48892;BME280;50130;52.150;5.236;2022-12-10T03:37:09;100687.0;;;1.47;96.13
48892;BME280;50130;52.150;5.236;2022-12-10T03:38:47;100694.0;;;1.32;96.45
48892;BME280;50130;52.150;5.236;2022-12-10T03:42:01;100690.0;;;1.34;96.36
48892;BME280;50130;52.150;5.236;2022-12-10T03:43:50;100686.0;;;1.49;95.98
48892;BME280;50130;52.150;5.236;2022-12-10T03:45:26;100688.0;;;1.39;96.57
48892;BME280;50130;52.150;5.236;2022-12-10T03:47:05;100682.0;;;1.41;96.38
48892;BME280;50130;52.150;5.236;2022-12-10T03:50:18;100685.0;;;1.33;96.68
48892;BME280;50130;52.150;5.236;2022-12-10T03:51:54;100688.0;;;1.34;96.52
48892;BME280;50130;52.150;5.236;2022-12-10T03:53:30;100692.0;;;1.34;96.78
48892;BME280;50130;52.150;5.236;2022-12-10T03:56:44;100688.0;;;1.37;96.65
48892;BME280;50130;52.150;5.236;2022-12-10T03:58:20;100688.0;;;1.63;96.2
48892;BME280;50130;52.150;5.236;2022-12-10T03:59:56;100686.0;;;1.52;95.66
48892;BME280;50130;52.150;5.236;2022-12-10T04:01:32;100688.0;;;1.45;96.06
48892;BME280;50130;52.150;5.236;2022-12-10T04:06:21;100691.0;;;1.4;96.88
48892;BME280;50130;52.150;5.236;2022-12-10T04:07:57;100689.0;;;1.38;97.04
48892;BME280;50130;52.150;5.236;2022-12-10T04:11:10;100684.0;;;1.34;97.19
48892;BME280;50130;52.150;5.236;2022-12-10T04:16:27;100686.0;;;1.4;97.02
48892;BME280;50130;52.150;5.236;2022-12-10T04:18:05;100680.0;;;1.45;96.89
48892;BME280;50130;52.150;5.236;2022-12-10T04:19:42;100682.0;;;1.29;96.93
48892;BME280;50130;52.150;5.236;2022-12-10T04:26:53;100686.0;;;1.48;96.29
48892;BME280;50130;52.150;5.236;2022-12-10T04:29:08;100685.0;;;1.37;96.92
48892;BME280;50130;52.150;5.236;2022-12-10T04:32:22;100692.0;;;1.42;96.67
48892;BME280;50130;52.150;5.236;2022-12-10T04:34:00;100695.0;;;1.36;96.67
48892;BME280;50130;52.150;5.236;2022-12-10T04:35:36;100700.0;;;1.42;96.96
48892;BME280;50130;52.150;5.236;2022-12-10T04:37:13;100695.0;;;1.38;96.63
48892;BME280;50130;52.150;5.236;2022-12-10T04:40:26;100695.0;;;1.46;96.94
48892;BME280;50130;52.150;5.236;2022-12-10T04:42:02;100695.0;;;1.42;96.77
48892;BME280;50130;52.150;5.236;2022-12-10T04:43:39;100694.0;;;1.42;96.87
48892;BME280;50130;52.150;5.236;2022-12-10T04:46:51;100693.0;;;1.44;96.89
48892;BME280;50130;52.150;5.236;2022-12-10T04:48:28;100690.0;;;1.43;96.56
48892;BME280;50130;52.150;5.236;2022-12-10T04:50:05;100699.0;;;1.41;96.86
48892;BME280;50130;52.150;5.236;2022-12-10T04:53:18;100702.0;;;1.35;96.94
48892;BME280;50130;52.150;5.236;2022-12-10T04:54:54;100708.0;;;1.32;97.03
48892;BME280;50130;52.150;5.236;2022-12-10T04:56:31;100705.0;;;1.42;97.15
48892;BME280;50130;52.150;5.236;2022-12-10T04:58:08;100708.0;;;1.23;97.12
48892;BME280;50130;52.150;5.236;2022-12-10T05:01:20;100712.0;;;1.23;97.78
48892;BME280;50130;52.150;5.236;2022-12-10T05:02:56;100712.0;;;1.28;97.55
48892;BME280;50130;52.150;5.236;2022-12-10T05:04:33;100706.0;;;1.27;97.14
48892;BME280;50130;52.150;5.236;2022-12-10T05:07:50;100712.0;;;1.2;97.18
48892;BME280;50130;52.150;5.236;2022-12-10T05:09:26;100705.0;;;1.39;96.44
48892;BME280;50130;52.150;5.236;2022-12-10T05:11:05;100707.0;;;1.21;96.78
48892;BME280;50130;52.150;5.236;2022-12-10T05:12:42;100709.0;;;1.32;96.76
48892;BME280;50130;52.150;5.236;2022-12-10T05:15:55;100708.0;;;1.36;96.53
48892;BME280;50130;52.150;5.236;2022-12-10T05:17:33;100714.0;;;1.41;96.31
48892;BME280;50130;52.150;5.236;2022-12-10T05:19:10;100708.0;;;1.39;96.46
48892;BME280;50130;52.150;5.236;2022-12-10T05:23:43;100705.0;;;1.45;96.38
48892;BME280;50130;52.150;5.236;2022-12-10T05:25:20;100701.0;;;1.43;96.21
48892;BME280;50130;52.150;5.236;2022-12-10T05:28:35;100705.0;;;1.45;96.34
48892;BME280;50130;52.150;5.236;2022-12-10T05:30:12;100703.0;;;1.49;95.84
48892;BME280;50130;52.150;5.236;2022-12-10T05:31:49;100701.0;;;1.45;95.52
48892;BME280;50130;52.150;5.236;2022-12-10T05:35:04;100700.0;;;1.35;96.02
48892;BME280;50130;52.150;5.236;2022-12-10T05:36:41;100702.0;;;1.27;96.5
48892;BME280;50130;52.150;5.236;2022-12-10T05:38:17;100699.0;;;1.3;96.89
48892;BME280;50130;52.150;5.236;2022-12-10T05:39:53;100705.0;;;1.23;96.96
48892;BME280;50130;52.150;5.236;2022-12-10T05:43:09;100708.0;;;1.33;96.9
48892;BME280;50130;52.150;5.236;2022-12-10T05:44:45;100709.0;;;1.22;97.17
48892;BME280;50130;52.150;5.236;2022-12-10T05:46:25;100705.0;;;1.38;97.02
48892;BME280;50130;52.150;5.236;2022-12-10T05:49:41;100710.0;;;1.28;97.07
48892;BME280;50130;52.150;5.236;2022-12-10T05:51:19;100708.0;;;1.41;97.08
48892;BME280;50130;52.150;5.236;2022-12-10T05:54:33;100712.0;;;1.54;96.66
48892;BME280;50130;52.150;5.236;2022-12-10T05:57:48;100713.0;;;1.46;96.51
48892;BME280;50130;52.150;5.236;2022-12-10T05:59:24;100713.0;;;1.45;96.69
48892;BME280;50130;52.150;5.236;2022-12-10T06:01:05;100715.0;;;1.39;96.79
48892;BME280;50130;52.150;5.236;2022-12-10T06:04:19;100717.0;;;1.41;96.77
48892;BME280;50130;52.150;5.236;2022-12-10T06:05:55;100720.0;;;1.37;96.55
48892;BME280;50130;52.150;5.236;2022-12-10T06:07:32;100723.0;;;1.32;96.78
48892;BME280;50130;52.150;5.236;2022-12-10T06:09:11;100717.0;;;1.39;96.76
48892;BME280;50130;52.150;5.236;2022-12-10T06:12:25;100724.0;;;1.47;96.26
48892;BME280;50130;52.150;5.236;2022-12-10T06:14:02;100718.0;;;1.48;95.91
48892;BME280;50130;52.150;5.236;2022-12-10T06:15:39;100721.0;;;1.56;95.89
48892;BME280;50130;52.150;5.236;2022-12-10T06:18:53;100721.0;;;1.52;95.88
48892;BME280;50130;52.150;5.236;2022-12-10T06:20:30;100723.0;;;1.4;96.45
48892;BME280;50130;52.150;5.236;2022-12-10T06:22:06;100726.0;;;1.46;96.42
48892;BME280;50130;52.150;5.236;2022-12-10T06:25:21;100723.0;;;1.49;96.21
48892;BME280;50130;52.150;5.236;2022-12-10T06:26:57;100730.0;;;1.37;96.11
48892;BME280;50130;52.150;5.236;2022-12-10T06:28:33;100730.0;;;1.33;96.24
48892;BME280;50130;52.150;5.236;2022-12-10T06:30:11;100732.0;;;1.35;96.13
48892;BME280;50130;52.150;5.236;2022-12-10T06:33:24;100726.0;;;1.39;95.78
48892;BME280;50130;52.150;5.236;2022-12-10T06:35:00;100726.0;;;1.4;95.68
48892;BME280;50130;52.150;5.236;2022-12-10T06:38:13;100728.0;;;1.35;95.83
48892;BME280;50130;52.150;5.236;2022-12-10T06:39:50;100727.0;;;1.23;96.17
48892;BME280;50130;52.150;5.236;2022-12-10T06:41:26;100730.0;;;1.25;96.38
48892;BME280;50130;52.150;5.236;2022-12-10T06:43:02;100728.0;;;1.29;96.34
48892;BME280;50130;52.150;5.236;2022-12-10T06:46:17;100739.0;;;1.37;96.37
48892;BME280;50130;52.150;5.236;2022-12-10T06:47:54;100742.0;;;1.25;96.33
48892;BME280;50130;52.150;5.236;2022-12-10T06:49:30;100747.0;;;1.27;96.45
48892;BME280;50130;52.150;5.236;2022-12-10T06:51:06;100742.0;;;1.36;96.29
48892;BME280;50130;52.150;5.236;2022-12-10T06:54:19;100746.0;;;1.33;96.33
48892;BME280;50130;52.150;5.236;2022-12-10T06:55:57;100741.0;;;1.36;96.19
48892;BME280;50130;52.150;5.236;2022-12-10T06:57:34;100739.0;;;1.34;96.47
48892;BME280;50130;52.150;5.236;2022-12-10T07:00:46;100741.0;;;1.33;96.43
48892;BME280;50130;52.150;5.236;2022-12-10T07:02:22;100748.0;;;1.26;96.68
48892;BME280;50130;52.150;5.236;2022-12-10T07:03:58;100757.0;;;1.22;96.69
48892;BME280;50130;52.150;5.236;2022-12-10T07:07:09;100755.0;;;1.33;96.84
48892;BME280;50130;52.150;5.236;2022-12-10T07:08:46;100762.0;;;1.28;96.67
48892;BME280;50130;52.150;5.236;2022-12-10T07:10:23;100767.0;;;1.28;96.58
48892;BME280;50130;52.150;5.236;2022-12-10T07:11:59;100768.0;;;1.36;96.23
48892;BME280;50130;52.150;5.236;2022-12-10T07:15:13;100772.0;;;1.43;96.31
48892;BME280;50130;52.150;5.236;2022-12-10T07:16:50;100772.0;;;1.28;96.79
48892;BME280;50130;52.150;5.236;2022-12-10T07:18:27;100777.0;;;1.34;96.99
48892;BME280;50130;52.150;5.236;2022-12-10T07:21:43;100780.0;;;1.37;96.86
48892;BME280;50130;52.150;5.236;2022-12-10T07:23:20;100776.0;;;1.42;96.55
48892;BME280;50130;52.150;5.236;2022-12-10T07:24:57;100780.0;;;1.37;96.6
48892;BME280;50130;52.150;5.236;2022-12-10T07:26:35;100785.0;;;1.42;96.49
48892;BME280;50130;52.150;5.236;2022-12-10T07:29:49;100789.0;;;1.32;96.72
48892;BME280;50130;52.150;5.236;2022-12-10T07:31:26;100784.0;;;1.35;96.71
48892;BME280;50130;52.150;5.236;2022-12-10T07:33:03;100788.0;;;1.39;96.87
48892;BME280;50130;52.150;5.236;2022-12-10T07:36:16;100788.0;;;1.35;96.65
48892;BME280;50130;52.150;5.236;2022-12-10T07:37:53;100790.0;;;1.37;97.19
48892;BME280;50130;52.150;5.236;2022-12-10T07:39:29;100787.0;;;1.43;96.87
48892;BME280;50130;52.150;5.236;2022-12-10T07:42:44;100788.0;;;1.33;96.57
48892;BME280;50130;52.150;5.236;2022-12-10T07:44:23;100782.0;;;1.45;96.87
48892;BME280;50130;52.150;5.236;2022-12-10T07:46:03;100785.0;;;1.41;96.72
48892;BME280;50130;52.150;5.236;2022-12-10T07:47:39;100782.0;;;1.3;97.01
48892;BME280;50130;52.150;5.236;2022-12-10T07:50:55;100783.0;;;1.33;96.99
48892;BME280;50130;52.150;5.236;2022-12-10T07:52:32;100782.0;;;1.29;97.02
48892;BME280;50130;52.150;5.236;2022-12-10T07:54:08;100786.0;;;1.41;96.69
48892;BME280;50130;52.150;5.236;2022-12-10T07:57:21;100785.0;;;1.41;96.65
48892;BME280;50130;52.150;5.236;2022-12-10T07:58:57;100788.0;;;1.48;96.28
48892;BME280;50130;52.150;5.236;2022-12-10T08:00:33;100787.0;;;1.41;96.29
48892;BME280;50130;52.150;5.236;2022-12-10T08:02:09;100788.0;;;1.41;96.07
48892;BME280;50130;52.150;5.236;2022-12-10T08:05:21;100783.0;;;1.46;96.22
48892;BME280;50130;52.150;5.236;2022-12-10T08:06:57;100780.0;;;1.37;96.45
48892;BME280;50130;52.150;5.236;2022-12-10T08:08:34;100781.0;;;1.35;96.37
48892;BME280;50130;52.150;5.236;2022-12-10T08:11:46;100782.0;;;1.38;96.24
48892;BME280;50130;52.150;5.236;2022-12-10T08:13:22;100784.0;;;1.23;96.24
48892;BME280;50130;52.150;5.236;2022-12-10T08:14:59;100789.0;;;1.23;96.37
48892;BME280;50130;52.150;5.236;2022-12-10T08:18:11;100786.0;;;1.16;96.09
48892;BME280;50130;52.150;5.236;2022-12-10T08:19:47;100789.0;;;1.21;96.11
48892;BME280;50130;52.150;5.236;2022-12-10T08:21:26;100794.0;;;1.27;95.81
48892;BME280;50130;52.150;5.236;2022-12-10T08:23:03;100799.0;;;1.18;96.18
48892;BME280;50130;52.150;5.236;2022-12-10T08:26:18;100805.0;;;1.1;96.73
48892;BME280;50130;52.150;5.236;2022-12-10T08:27:57;100801.0;;;1.17;96.58
48892;BME280;50130;52.150;5.236;2022-12-10T08:29:33;100809.0;;;1.31;96.67
48892;BME280;50130;52.150;5.236;2022-12-10T08:32:48;100805.0;;;1.28;96.16
48892;BME280;50130;52.150;5.236;2022-12-10T08:34:24;100813.0;;;1.5;96.01
48892;BME280;50130;52.150;5.236;2022-12-10T08:36:01;100820.0;;;1.45;95.32
48892;BME280;50130;52.150;5.236;2022-12-10T08:39:16;100818.0;;;1.34;95.91
48892;BME280;50130;52.150;5.236;2022-12-10T08:40:53;100820.0;;;1.43;95.85
48892;BME280;50130;52.150;5.236;2022-12-10T08:42:30;100830.0;;;1.44;96.01
48892;BME280;50130;52.150;5.236;2022-12-10T08:44:05;100827.0;;;1.26;95.92
48892;BME280;50130;52.150;5.236;2022-12-10T08:47:18;100838.0;;;1.28;96.01
48892;BME280;50130;52.150;5.236;2022-12-10T08:48:54;100843.0;;;1.17;95.93
48892;BME280;50130;52.150;5.236;2022-12-10T08:50:31;100848.0;;;1.13;95.99
48892;BME280;50130;52.150;5.236;2022-12-10T08:53:43;100855.0;;;1.21;95.97
48892;BME280;50130;52.150;5.236;2022-12-10T08:55:20;100856.0;;;1.34;95.15
48892;BME280;50130;52.150;5.236;2022-12-10T08:56:56;100855.0;;;1.14;95.32
48892;BME280;50130;52.150;5.236;2022-12-10T09:00:10;100848.0;;;1.16;95.96
48892;BME280;50130;52.150;5.236;2022-12-10T09:01:47;100851.0;;;1.21;95.74
48892;BME280;50130;52.150;5.236;2022-12-10T09:03:24;100857.0;;;1.3;95.83
48892;BME280;50130;52.150;5.236;2022-12-10T09:05:01;100847.0;;;1.18;95.99
48892;BME280;50130;52.150;5.236;2022-12-10T09:08:13;100853.0;;;1.2;96.61
48892;BME280;50130;52.150;5.236;2022-12-10T09:09:50;100859.0;;;1.14;96.77
48892;BME280;50130;52.150;5.236;2022-12-10T09:11:28;100862.0;;;1.14;96.61
48892;BME280;50130;52.150;5.236;2022-12-10T09:14:42;100858.0;;;1.01;96.47
48892;BME280;50130;52.150;5.236;2022-12-10T09:16:18;100859.0;;;1.01;96.51
48892;BME280;50130;52.150;5.236;2022-12-10T09:17:56;100864.0;;;1.06;96.68
48892;BME280;50130;52.150;5.236;2022-12-10T09:19:32;100866.0;;;1.03;96.25
48892;BME280;50130;52.150;5.236;2022-12-10T09:22:50;100866.0;;;1.04;96.44
48892;BME280;50130;52.150;5.236;2022-12-10T09:24:27;100869.0;;;1.12;96.25
48892;BME280;50130;52.150;5.236;2022-12-10T09:26:06;100865.0;;;1.04;96.15
48892;BME280;50130;52.150;5.236;2022-12-10T09:29:20;100866.0;;;1.16;95.69
48892;BME280;50130;52.150;5.236;2022-12-10T09:30:57;100876.0;;;1.28;95.82
48892;BME280;50130;52.150;5.236;2022-12-10T09:32:34;100880.0;;;1.24;95.84
48892;BME280;50130;52.150;5.236;2022-12-10T09:34:10;100884.0;;;1.32;95.47
48892;BME280;50130;52.150;5.236;2022-12-10T09:37:22;100882.0;;;1.18;95.72
48892;BME280;50130;52.150;5.236;2022-12-10T09:38:58;100883.0;;;1.21;96.03
48892;BME280;50130;52.150;5.236;2022-12-10T09:42:25;100884.0;;;1.29;95.66
48892;BME280;50130;52.150;5.236;2022-12-10T09:44:10;100887.0;;;1.2;95.42
48892;BME280;50130;52.150;5.236;2022-12-10T09:45:59;100885.0;;;1.23;95.68
48892;BME280;50130;52.150;5.236;2022-12-10T09:47:48;100885.0;;;1.27;94.91
48892;BME280;50130;52.150;5.236;2022-12-10T09:49:36;100884.0;;;1.12;95.19
48892;BME280;50130;52.150;5.236;2022-12-10T09:51:21;100883.0;;;1.14;95.23
48892;BME280;50130;52.150;5.236;2022-12-10T09:53:00;100885.0;;;0.99;95.6
48892;BME280;50130;52.150;5.236;2022-12-10T09:56:22;100883.0;;;1.0;96.06
48892;BME280;50130;52.150;5.236;2022-12-10T09:57:59;100884.0;;;1.08;96.07
48892;BME280;50130;52.150;5.236;2022-12-10T09:59:40;100889.0;;;1.02;96.55
48892;BME280;50130;52.150;5.236;2022-12-10T10:03:01;100893.0;;;1.21;96.65
48892;BME280;50130;52.150;5.236;2022-12-10T10:04:39;100890.0;;;1.24;95.62
48892;BME280;50130;52.150;5.236;2022-12-10T10:06:15;100893.0;;;1.22;95.68
48892;BME280;50130;52.150;5.236;2022-12-10T10:07:54;100894.0;;;1.35;95.62
48892;BME280;50130;52.150;5.236;2022-12-10T10:11:18;100893.0;;;1.27;95.22
48892;BME280;50130;52.150;5.236;2022-12-10T10:12:58;100894.0;;;1.36;95.26
48892;BME280;50130;52.150;5.236;2022-12-10T10:14:37;100898.0;;;1.26;95.42
48892;BME280;50130;52.150;5.236;2022-12-10T10:16:21;100892.0;;;1.12;95.89
48892;BME280;50130;52.150;5.236;2022-12-10T10:19:42;100891.0;;;1.27;95.88
48892;BME280;50130;52.150;5.236;2022-12-10T10:21:21;100898.0;;;1.19;96.19
48892;BME280;50130;52.150;5.236;2022-12-10T10:22:59;100898.0;;;0.98;96.24
48892;BME280;50130;52.150;5.236;2022-12-10T10:24:39;100901.0;;;1.23;95.79
48892;BME280;50130;52.150;5.236;2022-12-10T10:27:53;100902.0;;;1.23;96.04
48892;BME280;50130;52.150;5.236;2022-12-10T10:29:29;100900.0;;;1.12;95.75
48892;BME280;50130;52.150;5.236;2022-12-10T10:31:15;100901.0;;;1.06;95.59
48892;BME280;50130;52.150;5.236;2022-12-10T10:32:55;100902.0;;;1.12;95.74
48892;BME280;50130;52.150;5.236;2022-12-10T10:36:09;100899.0;;;1.24;95.38
48892;BME280;50130;52.150;5.236;2022-12-10T10:37:46;100901.0;;;1.3;95.11
48892;BME280;50130;52.150;5.236;2022-12-10T10:39:26;100896.0;;;1.35;95.04
48892;BME280;50130;52.150;5.236;2022-12-10T10:42:42;100897.0;;;1.33;94.89
48892;BME280;50130;52.150;5.236;2022-12-10T10:44:22;100901.0;;;1.22;94.92
48892;BME280;50130;52.150;5.236;2022-12-10T10:46:04;100897.0;;;1.33;94.72
48892;BME280;50130;52.150;5.236;2022-12-10T10:47:42;100895.0;;;1.25;95.15
48892;BME280;50130;52.150;5.236;2022-12-10T10:51:06;100895.0;;;1.1;94.99
48892;BME280;50130;52.150;5.236;2022-12-10T10:52:43;100892.0;;;1.1;95.52
48892;BME280;50130;52.150;5.236;2022-12-10T10:54:32;100900.0;;;1.21;95.77
48892;BME280;50130;52.150;5.236;2022-12-10T10:56:19;100907.0;;;1.36;95.45
48892;BME280;50130;52.150;5.236;2022-12-10T10:57:56;100905.0;;;1.18;95.87
48892;BME280;50130;52.150;5.236;2022-12-10T11:01:11;100905.0;;;1.25;95.78
48892;BME280;50130;52.150;5.236;2022-12-10T11:02:48;100902.0;;;1.23;95.37
48892;BME280;50130;52.150;5.236;2022-12-10T11:04:30;100905.0;;;1.25;95.39
48892;BME280;50130;52.150;5.236;2022-12-10T11:07:43;100905.0;;;1.19;95.26
48892;BME280;50130;52.150;5.236;2022-12-10T11:09:21;100899.0;;;1.25;95.21
48892;BME280;50130;52.150;5.236;2022-12-10T11:11:04;100901.0;;;1.23;95.58
48892;BME280;50130;52.150;5.236;2022-12-10T11:12:44;100902.0;;;1.3;95.97
48892;BME280;50130;52.150;5.236;2022-12-10T11:16:15;100905.0;;;1.32;96.03
48892;BME280;50130;52.150;5.236;2022-12-10T11:17:54;100908.0;;;1.36;95.65
48892;BME280;50130;52.150;5.236;2022-12-10T11:19:31;100905.0;;;1.38;95.17
48892;BME280;50130;52.150;5.236;2022-12-10T11:21:16;100898.0;;;1.41;95.37
48892;BME280;50130;52.150;5.236;2022-12-10T11:24:32;100893.0;;;1.23;95.43
48892;BME280;50130;52.150;5.236;2022-12-10T11:26:18;100901.0;;;1.25;95.89
48892;BME280;50130;52.150;5.236;2022-12-10T11:28:08;100901.0;;;1.22;95.86
48892;BME280;50130;52.150;5.236;2022-12-10T11:29:57;100895.0;;;1.28;95.97
48892;BME280;50130;52.150;5.236;2022-12-10T11:31:46;100889.0;;;1.41;95.99
48892;BME280;50130;52.150;5.236;2022-12-10T11:33:36;100886.0;;;1.28;95.88
48892;BME280;50130;52.150;5.236;2022-12-10T11:37:23;100889.0;;;1.26;96.3
48892;BME280;50130;52.150;5.236;2022-12-10T11:39:15;100887.0;;;1.16;96.25